sensor_id;sensor_type;location;lat;lon;timestamp;temperature;humidity
9971;DHT22;5026;51.494;11.974;2022-08-19T00:00:29;21.10;99.90
9971;DHT22;5026;51.494;11.974;2022-08-19T00:05:25;21.20;99.90
9971;DHT22;5026;51.494;11.974;2022-08-19T00:10:20;21.20;99.90
9971;DHT22;5026;51.494;11.974;2022-08-19T00:15:16;21.20;99.90
9971;DHT22;5026;51.494;11.974;2022-08-19T00:17:44;21.20;99.90
9971;DHT22;5026;51.494;11.974;2022-08-19T00:20:13;21.20;99.90
9971;DHT22;5026;51.494;11.974;2022-08-19T00:22:43;21.20;99.90
9971;DHT22;5026;51.494;11.974;2022-08-19T00:25:11;21.20;99.90
9971;DHT22;5026;51.494;11.974;2022-08-19T00:30:06;21.20;99.90
9971;DHT22;5026;51.494;11.974;2022-08-19T00:35:03;21.10;99.90
9971;DHT22;5026;51.494;11.974;2022-08-19T00:40:00;21.00;99.90
9971;DHT22;5026;51.494;11.974;2022-08-19T00:42:28;21.00;99.90
9971;DHT22;5026;51.494;11.974;2022-08-19T00:44:54;21.10;99.90
9971;DHT22;5026;51.494;11.974;2022-08-19T00:49:52;21.10;99.90
9971;DHT22;5026;51.494;11.974;2022-08-19T00:52:23;21.10;99.90
9971;DHT22;5026;51.494;11.974;2022-08-19T00:54:51;21.10;99.90
9971;DHT22;5026;51.494;11.974;2022-08-19T00:57:24;21.10;99.90
9971;DHT22;5026;51.494;11.974;2022-08-19T00:59:54;21.10;99.90
9971;DHT22;5026;51.494;11.974;2022-08-19T01:02:23;21.10;99.90
9971;DHT22;5026;51.494;11.974;2022-08-19T01:04:50;21.10;99.90
9971;DHT22;5026;51.494;11.974;2022-08-19T01:07:17;19.40;99.90
9971;DHT22;5026;51.494;11.974;2022-08-19T01:12:11;21.00;99.90
9971;DHT22;5026;51.494;11.974;2022-08-19T01:14:40;21.00;99.90
9971;DHT22;5026;51.494;11.974;2022-08-19T01:17:08;21.10;99.90
9971;DHT22;5026;51.494;11.974;2022-08-19T01:19:36;21.00;99.90
9971;DHT22;5026;51.494;11.974;2022-08-19T01:22:09;22.80;99.90
9971;DHT22;5026;51.494;11.974;2022-08-19T01:24:40;21.00;99.90
9971;DHT22;5026;51.494;11.974;2022-08-19T01:27:08;20.90;99.90
9971;DHT22;5026;51.494;11.974;2022-08-19T01:29:37;21.00;99.90
9971;DHT22;5026;51.494;11.974;2022-08-19T01:36:59;20.90;99.90
9971;DHT22;5026;51.494;11.974;2022-08-19T01:39:27;20.90;99.90
9971;DHT22;5026;51.494;11.974;2022-08-19T01:41:55;20.80;99.90
9971;DHT22;5026;51.494;11.974;2022-08-19T01:46:51;20.90;99.90
9971;DHT22;5026;51.494;11.974;2022-08-19T01:49:20;20.80;99.90
9971;DHT22;5026;51.494;11.974;2022-08-19T01:51:48;20.70;99.90
9971;DHT22;5026;51.494;11.974;2022-08-19T01:54:17;20.70;99.90
9971;DHT22;5026;51.494;11.974;2022-08-19T01:59:15;20.60;99.90
9971;DHT22;5026;51.494;11.974;2022-08-19T02:01:42;20.50;99.90
9971;DHT22;5026;51.494;11.974;2022-08-19T02:04:09;20.50;99.90
9971;DHT22;5026;51.494;11.974;2022-08-19T02:06:37;20.50;99.90
9971;DHT22;5026;51.494;11.974;2022-08-19T02:09:07;20.40;99.90
9971;DHT22;5026;51.494;11.974;2022-08-19T02:11:36;20.50;99.90
9971;DHT22;5026;51.494;11.974;2022-08-19T02:14:05;20.50;99.90
9971;DHT22;5026;51.494;11.974;2022-08-19T02:16:35;20.40;99.90
9971;DHT22;5026;51.494;11.974;2022-08-19T02:19:02;20.40;99.90
9971;DHT22;5026;51.494;11.974;2022-08-19T02:21:30;20.40;99.90
9971;DHT22;5026;51.494;11.974;2022-08-19T02:26:25;20.40;99.90
9971;DHT22;5026;51.494;11.974;2022-08-19T02:28:53;20.40;99.90
9971;DHT22;5026;51.494;11.974;2022-08-19T02:31:23;20.40;99.90
9971;DHT22;5026;51.494;11.974;2022-08-19T02:33:51;20.50;99.90
9971;DHT22;5026;51.494;11.974;2022-08-19T02:36:19;20.40;99.90
9971;DHT22;5026;51.494;11.974;2022-08-19T02:38:46;20.40;99.90
9971;DHT22;5026;51.494;11.974;2022-08-19T02:41:16;20.50;99.90
9971;DHT22;5026;51.494;11.974;2022-08-19T02:43:44;20.60;99.90
9971;DHT22;5026;51.494;11.974;2022-08-19T02:46:12;20.60;99.90
9971;DHT22;5026;51.494;11.974;2022-08-19T02:51:08;20.70;99.90
9971;DHT22;5026;51.494;11.974;2022-08-19T02:53:35;20.70;99.90
9971;DHT22;5026;51.494;11.974;2022-08-19T02:56:06;20.70;99.90
9971;DHT22;5026;51.494;11.974;2022-08-19T02:58:33;20.60;99.90
9971;DHT22;5026;51.494;11.974;2022-08-19T03:01:00;20.60;99.90
9971;DHT22;5026;51.494;11.974;2022-08-19T03:06:11;20.60;99.90
9971;DHT22;5026;51.494;11.974;2022-08-19T03:08:39;20.60;99.90
9971;DHT22;5026;51.494;11.974;2022-08-19T03:11:10;20.60;99.90
9971;DHT22;5026;51.494;11.974;2022-08-19T03:13:38;20.60;99.90
9971;DHT22;5026;51.494;11.974;2022-08-19T03:16:05;20.60;99.90
9971;DHT22;5026;51.494;11.974;2022-08-19T03:18:32;20.60;99.90
9971;DHT22;5026;51.494;11.974;2022-08-19T03:20:59;20.60;99.90
9971;DHT22;5026;51.494;11.974;2022-08-19T03:23:27;20.60;99.90
9971;DHT22;5026;51.494;11.974;2022-08-19T03:25:54;20.60;99.90
9971;DHT22;5026;51.494;11.974;2022-08-19T03:28:21;20.60;99.90
9971;DHT22;5026;51.494;11.974;2022-08-19T03:30:56;20.60;99.90
9971;DHT22;5026;51.494;11.974;2022-08-19T03:33:25;20.50;99.90
9971;DHT22;5026;51.494;11.974;2022-08-19T03:36:03;20.40;99.90
9971;DHT22;5026;51.494;11.974;2022-08-19T03:38:32;20.40;99.90
9971;DHT22;5026;51.494;11.974;2022-08-19T03:41:02;20.40;99.90
9971;DHT22;5026;51.494;11.974;2022-08-19T03:43:32;20.40;99.90
9971;DHT22;5026;51.494;11.974;2022-08-19T03:46:03;20.50;99.90
9971;DHT22;5026;51.494;11.974;2022-08-19T03:48:31;20.50;99.90
9971;DHT22;5026;51.494;11.974;2022-08-19T03:50:58;20.40;99.90
9971;DHT22;5026;51.494;11.974;2022-08-19T03:53:26;20.40;99.90
9971;DHT22;5026;51.494;11.974;2022-08-19T03:55:55;20.50;99.90
9971;DHT22;5026;51.494;11.974;2022-08-19T03:58:22;20.50;99.90
9971;DHT22;5026;51.494;11.974;2022-08-19T04:03:17;20.70;99.90
9971;DHT22;5026;51.494;11.974;2022-08-19T04:05:45;20.70;99.90
9971;DHT22;5026;51.494;11.974;2022-08-19T04:08:13;20.90;99.90
9971;DHT22;5026;51.494;11.974;2022-08-19T04:10:40;20.80;99.90
9971;DHT22;5026;51.494;11.974;2022-08-19T04:13:09;20.80;99.90
9971;DHT22;5026;51.494;11.974;2022-08-19T04:15:40;20.80;99.90
9971;DHT22;5026;51.494;11.974;2022-08-19T04:18:08;20.80;99.90
9971;DHT22;5026;51.494;11.974;2022-08-19T04:20:40;20.80;99.90
9971;DHT22;5026;51.494;11.974;2022-08-19T04:23:07;20.80;99.90
9971;DHT22;5026;51.494;11.974;2022-08-19T04:25:36;20.80;99.90
9971;DHT22;5026;51.494;11.974;2022-08-19T04:28:04;20.90;99.90
9971;DHT22;5026;51.494;11.974;2022-08-19T04:30:38;20.90;99.90
9971;DHT22;5026;51.494;11.974;2022-08-19T04:33:05;20.90;99.90
9971;DHT22;5026;51.494;11.974;2022-08-19T04:35:36;20.90;99.90
9971;DHT22;5026;51.494;11.974;2022-08-19T04:38:03;20.90;99.90
9971;DHT22;5026;51.494;11.974;2022-08-19T04:40:30;20.90;99.90
9971;DHT22;5026;51.494;11.974;2022-08-19T04:43:14;20.90;99.90
9971;DHT22;5026;51.494;11.974;2022-08-19T04:45:43;20.80;99.90
9971;DHT22;5026;51.494;11.974;2022-08-19T04:48:10;20.80;99.90
9971;DHT22;5026;51.494;11.974;2022-08-19T04:50:40;20.70;99.90
9971;DHT22;5026;51.494;11.974;2022-08-19T04:55:39;20.90;99.90
9971;DHT22;5026;51.494;11.974;2022-08-19T04:58:06;21.00;99.90
9971;DHT22;5026;51.494;11.974;2022-08-19T05:00:33;21.00;99.90
9971;DHT22;5026;51.494;11.974;2022-08-19T05:03:02;21.00;99.90
9971;DHT22;5026;51.494;11.974;2022-08-19T05:05:28;21.10;99.90
9971;DHT22;5026;51.494;11.974;2022-08-19T05:07:57;21.10;99.90
9971;DHT22;5026;51.494;11.974;2022-08-19T05:10:24;21.00;99.90
9971;DHT22;5026;51.494;11.974;2022-08-19T05:12:52;20.90;99.90
9971;DHT22;5026;51.494;11.974;2022-08-19T05:15:19;21.00;99.90
9971;DHT22;5026;51.494;11.974;2022-08-19T05:20:28;21.00;99.90
9971;DHT22;5026;51.494;11.974;2022-08-19T05:23:13;21.00;99.90
9971;DHT22;5026;51.494;11.974;2022-08-19T05:25:41;21.10;99.90
9971;DHT22;5026;51.494;11.974;2022-08-19T05:28:08;21.10;99.90
9971;DHT22;5026;51.494;11.974;2022-08-19T05:30:35;21.10;99.90
9971;DHT22;5026;51.494;11.974;2022-08-19T05:33:02;21.10;99.90
9971;DHT22;5026;51.494;11.974;2022-08-19T05:35:30;21.10;99.90
9971;DHT22;5026;51.494;11.974;2022-08-19T05:37:57;21.10;99.90
9971;DHT22;5026;51.494;11.974;2022-08-19T05:40:24;21.10;99.90
9971;DHT22;5026;51.494;11.974;2022-08-19T05:42:51;21.10;99.90
9971;DHT22;5026;51.494;11.974;2022-08-19T05:45:18;21.00;99.90
9971;DHT22;5026;51.494;11.974;2022-08-19T05:47:47;21.00;99.90
9971;DHT22;5026;51.494;11.974;2022-08-19T05:52:44;21.10;99.90
9971;DHT22;5026;51.494;11.974;2022-08-19T05:55:12;21.10;99.90
9971;DHT22;5026;51.494;11.974;2022-08-19T05:57:39;21.00;99.90
9971;DHT22;5026;51.494;11.974;2022-08-19T06:00:07;21.00;99.90
9971;DHT22;5026;51.494;11.974;2022-08-19T06:02:36;20.90;99.90
9971;DHT22;5026;51.494;11.974;2022-08-19T06:05:03;20.90;99.90
9971;DHT22;5026;51.494;11.974;2022-08-19T06:07:31;21.00;99.90
9971;DHT22;5026;51.494;11.974;2022-08-19T06:09:59;21.10;99.90
9971;DHT22;5026;51.494;11.974;2022-08-19T06:12:26;21.00;99.90
9971;DHT22;5026;51.494;11.974;2022-08-19T06:14:56;21.10;99.90
9971;DHT22;5026;51.494;11.974;2022-08-19T06:17:23;21.00;99.90
9971;DHT22;5026;51.494;11.974;2022-08-19T06:19:51;21.20;99.90
9971;DHT22;5026;51.494;11.974;2022-08-19T06:22:18;21.30;99.90
9971;DHT22;5026;51.494;11.974;2022-08-19T06:24:44;21.40;99.90
9971;DHT22;5026;51.494;11.974;2022-08-19T06:27:13;21.30;99.90
9971;DHT22;5026;51.494;11.974;2022-08-19T06:29:41;21.40;99.90
9971;DHT22;5026;51.494;11.974;2022-08-19T06:34:36;21.20;99.90
9971;DHT22;5026;51.494;11.974;2022-08-19T06:37:04;21.40;99.90
9971;DHT22;5026;51.494;11.974;2022-08-19T06:39:36;21.40;99.90
9971;DHT22;5026;51.494;11.974;2022-08-19T06:42:05;21.50;99.90
9971;DHT22;5026;51.494;11.974;2022-08-19T06:44:35;21.50;99.90
9971;DHT22;5026;51.494;11.974;2022-08-19T06:47:04;21.60;99.90
9971;DHT22;5026;51.494;11.974;2022-08-19T06:49:31;21.80;99.90
9971;DHT22;5026;51.494;11.974;2022-08-19T06:51:59;21.90;99.90
9971;DHT22;5026;51.494;11.974;2022-08-19T06:54:27;22.00;99.90
9971;DHT22;5026;51.494;11.974;2022-08-19T06:56:55;22.20;99.90
9971;DHT22;5026;51.494;11.974;2022-08-19T06:59:24;22.20;99.90
9971;DHT22;5026;51.494;11.974;2022-08-19T07:01:56;22.10;99.90
9971;DHT22;5026;51.494;11.974;2022-08-19T07:04:26;22.10;99.90
9971;DHT22;5026;51.494;11.974;2022-08-19T07:06:58;22.00;99.90
9971;DHT22;5026;51.494;11.974;2022-08-19T07:09:26;22.00;99.90
9971;DHT22;5026;51.494;11.974;2022-08-19T07:11:53;22.00;99.90
9971;DHT22;5026;51.494;11.974;2022-08-19T07:14:23;22.00;99.90
9971;DHT22;5026;51.494;11.974;2022-08-19T07:16:52;22.00;99.90
9971;DHT22;5026;51.494;11.974;2022-08-19T07:19:23;21.50;99.90
9971;DHT22;5026;51.494;11.974;2022-08-19T07:21:51;21.50;99.90
9971;DHT22;5026;51.494;11.974;2022-08-19T07:24:19;21.40;99.90
9971;DHT22;5026;51.494;11.974;2022-08-19T07:26:49;21.40;99.90
9971;DHT22;5026;51.494;11.974;2022-08-19T07:29:16;21.40;99.90
9971;DHT22;5026;51.494;11.974;2022-08-19T07:31:43;21.40;99.90
9971;DHT22;5026;51.494;11.974;2022-08-19T07:34:11;21.50;99.90
9971;DHT22;5026;51.494;11.974;2022-08-19T07:36:43;21.40;99.90
9971;DHT22;5026;51.494;11.974;2022-08-19T07:39:12;21.40;99.90
9971;DHT22;5026;51.494;11.974;2022-08-19T07:41:39;21.30;99.90
9971;DHT22;5026;51.494;11.974;2022-08-19T07:44:08;21.50;99.90
9971;DHT22;5026;51.494;11.974;2022-08-19T07:46:37;21.50;99.90
9971;DHT22;5026;51.494;11.974;2022-08-19T07:49:06;21.60;99.90
9971;DHT22;5026;51.494;11.974;2022-08-19T07:51:34;21.60;99.90
9971;DHT22;5026;51.494;11.974;2022-08-19T07:54:02;21.70;99.90
9971;DHT22;5026;51.494;11.974;2022-08-19T07:56:29;21.70;99.90
9971;DHT22;5026;51.494;11.974;2022-08-19T08:01:26;21.80;99.90
9971;DHT22;5026;51.494;11.974;2022-08-19T08:03:54;21.80;99.90
9971;DHT22;5026;51.494;11.974;2022-08-19T08:06:39;21.80;99.90
9971;DHT22;5026;51.494;11.974;2022-08-19T08:09:28;21.60;99.90
9971;DHT22;5026;51.494;11.974;2022-08-19T08:11:59;21.60;99.90
9971;DHT22;5026;51.494;11.974;2022-08-19T08:14:30;21.70;99.90
9971;DHT22;5026;51.494;11.974;2022-08-19T08:16:58;21.70;99.90
9971;DHT22;5026;51.494;11.974;2022-08-19T08:19:26;21.90;99.90
9971;DHT22;5026;51.494;11.974;2022-08-19T08:21:55;21.90;99.90
9971;DHT22;5026;51.494;11.974;2022-08-19T08:24:22;22.00;99.90
9971;DHT22;5026;51.494;11.974;2022-08-19T08:26:50;21.90;99.90
9971;DHT22;5026;51.494;11.974;2022-08-19T08:29:17;21.90;99.90
9971;DHT22;5026;51.494;11.974;2022-08-19T08:31:45;21.90;99.90
9971;DHT22;5026;51.494;11.974;2022-08-19T08:34:14;22.00;99.90
9971;DHT22;5026;51.494;11.974;2022-08-19T08:36:42;21.90;99.90
9971;DHT22;5026;51.494;11.974;2022-08-19T08:39:11;22.00;99.90
9971;DHT22;5026;51.494;11.974;2022-08-19T08:41:46;22.10;99.90
9971;DHT22;5026;51.494;11.974;2022-08-19T08:44:19;22.30;99.90
9971;DHT22;5026;51.494;11.974;2022-08-19T08:46:50;22.20;99.90
9971;DHT22;5026;51.494;11.974;2022-08-19T08:49:33;22.40;99.90
9971;DHT22;5026;51.494;11.974;2022-08-19T08:52:10;22.50;99.90
9971;DHT22;5026;51.494;11.974;2022-08-19T08:54:40;22.50;99.90
9971;DHT22;5026;51.494;11.974;2022-08-19T08:57:12;22.60;99.90
9971;DHT22;5026;51.494;11.974;2022-08-19T08:59:43;22.60;99.90
9971;DHT22;5026;51.494;11.974;2022-08-19T09:02:16;22.50;99.90
9971;DHT22;5026;51.494;11.974;2022-08-19T09:04:43;22.60;99.90
9971;DHT22;5026;51.494;11.974;2022-08-19T09:07:31;22.60;99.90
9971;DHT22;5026;51.494;11.974;2022-08-19T09:10:08;22.50;99.90
9971;DHT22;5026;51.494;11.974;2022-08-19T09:12:51;22.50;99.90
9971;DHT22;5026;51.494;11.974;2022-08-19T09:15:25;22.50;99.90
9971;DHT22;5026;51.494;11.974;2022-08-19T09:17:53;22.30;99.90
9971;DHT22;5026;51.494;11.974;2022-08-19T09:20:22;22.30;99.90
9971;DHT22;5026;51.494;11.974;2022-08-19T09:22:50;22.40;99.90
9971;DHT22;5026;51.494;11.974;2022-08-19T09:25:19;22.30;99.90
9971;DHT22;5026;51.494;11.974;2022-08-19T09:30:17;22.30;99.90
9971;DHT22;5026;51.494;11.974;2022-08-19T09:32:45;22.20;99.90
9971;DHT22;5026;51.494;11.974;2022-08-19T09:35:14;22.10;99.90
9971;DHT22;5026;51.494;11.974;2022-08-19T09:37:41;22.20;99.90
9971;DHT22;5026;51.494;11.974;2022-08-19T09:40:10;22.30;99.90
9971;DHT22;5026;51.494;11.974;2022-08-19T09:42:37;22.30;99.90
9971;DHT22;5026;51.494;11.974;2022-08-19T09:45:05;21.50;99.90
9971;DHT22;5026;51.494;11.974;2022-08-19T09:47:32;22.40;99.90
9971;DHT22;5026;51.494;11.974;2022-08-19T09:50:06;22.40;99.90
9971;DHT22;5026;51.494;11.974;2022-08-19T09:52:33;22.20;99.90
9971;DHT22;5026;51.494;11.974;2022-08-19T09:55:02;22.30;99.90
9971;DHT22;5026;51.494;11.974;2022-08-19T09:57:29;22.40;99.90
9971;DHT22;5026;51.494;11.974;2022-08-19T09:59:56;22.40;99.90
9971;DHT22;5026;51.494;11.974;2022-08-19T10:02:23;22.40;99.90
9971;DHT22;5026;51.494;11.974;2022-08-19T10:04:51;22.30;99.90
9971;DHT22;5026;51.494;11.974;2022-08-19T10:07:37;22.40;99.90
9971;DHT22;5026;51.494;11.974;2022-08-19T10:10:06;22.40;99.90
9971;DHT22;5026;51.494;11.974;2022-08-19T10:12:33;22.50;99.90
9971;DHT22;5026;51.494;11.974;2022-08-19T10:15:00;22.70;99.90
9971;DHT22;5026;51.494;11.974;2022-08-19T10:17:29;22.60;99.90
9971;DHT22;5026;51.494;11.974;2022-08-19T10:19:58;22.70;99.90
9971;DHT22;5026;51.494;11.974;2022-08-19T10:22:25;22.70;99.90
9971;DHT22;5026;51.494;11.974;2022-08-19T10:24:54;23.30;99.90
9971;DHT22;5026;51.494;11.974;2022-08-19T10:27:22;23.50;99.90
9971;DHT22;5026;51.494;11.974;2022-08-19T10:29:49;23.50;99.90
9971;DHT22;5026;51.494;11.974;2022-08-19T10:32:16;23.70;99.90
9971;DHT22;5026;51.494;11.974;2022-08-19T10:34:43;23.60;99.90
9971;DHT22;5026;51.494;11.974;2022-08-19T10:37:10;23.60;99.90
9971;DHT22;5026;51.494;11.974;2022-08-19T10:39:37;23.50;99.80
9971;DHT22;5026;51.494;11.974;2022-08-19T10:42:07;23.40;99.70
9971;DHT22;5026;51.494;11.974;2022-08-19T10:44:36;23.40;99.90
9971;DHT22;5026;51.494;11.974;2022-08-19T10:47:03;23.50;99.80
9971;DHT22;5026;51.494;11.974;2022-08-19T10:49:30;23.80;99.60
9971;DHT22;5026;51.494;11.974;2022-08-19T10:52:18;24.10;99.40
9971;DHT22;5026;51.494;11.974;2022-08-19T10:54:58;24.50;99.00
9971;DHT22;5026;51.494;11.974;2022-08-19T10:57:56;24.80;98.60
9971;DHT22;5026;51.494;11.974;2022-08-19T11:00:23;24.90;98.20
9971;DHT22;5026;51.494;11.974;2022-08-19T11:02:51;25.10;97.60
9971;DHT22;5026;51.494;11.974;2022-08-19T11:05:18;25.40;97.40
9971;DHT22;5026;51.494;11.974;2022-08-19T11:07:47;25.50;96.80
9971;DHT22;5026;51.494;11.974;2022-08-19T11:10:15;25.60;96.90
9971;DHT22;5026;51.494;11.974;2022-08-19T11:12:44;25.90;96.60
9971;DHT22;5026;51.494;11.974;2022-08-19T11:15:15;25.80;96.20
9971;DHT22;5026;51.494;11.974;2022-08-19T11:17:42;26.10;96.10
9971;DHT22;5026;51.494;11.974;2022-08-19T11:20:10;26.50;95.80
9971;DHT22;5026;51.494;11.974;2022-08-19T11:22:38;26.50;95.30
9971;DHT22;5026;51.494;11.974;2022-08-19T11:25:07;26.50;95.00
9971;DHT22;5026;51.494;11.974;2022-08-19T11:27:37;26.60;95.00
9971;DHT22;5026;51.494;11.974;2022-08-19T11:30:06;26.60;94.80
9971;DHT22;5026;51.494;11.974;2022-08-19T11:32:35;26.60;94.40
9971;DHT22;5026;51.494;11.974;2022-08-19T11:35:02;26.40;94.40
9971;DHT22;5026;51.494;11.974;2022-08-19T11:37:29;26.60;94.40
9971;DHT22;5026;51.494;11.974;2022-08-19T11:39:56;26.60;94.20
9971;DHT22;5026;51.494;11.974;2022-08-19T11:42:23;26.50;94.40
9971;DHT22;5026;51.494;11.974;2022-08-19T11:45:08;26.60;94.10
9971;DHT22;5026;51.494;11.974;2022-08-19T11:47:37;26.60;94.20
9971;DHT22;5026;51.494;11.974;2022-08-19T11:50:05;26.50;94.10
9971;DHT22;5026;51.494;11.974;2022-08-19T11:52:32;26.70;93.90
9971;DHT22;5026;51.494;11.974;2022-08-19T11:54:59;26.50;93.60
9971;DHT22;5026;51.494;11.974;2022-08-19T11:57:26;26.30;94.00
9971;DHT22;5026;51.494;11.974;2022-08-19T11:59:52;26.50;94.10
9971;DHT22;5026;51.494;11.974;2022-08-19T12:02:19;26.60;93.90
9971;DHT22;5026;51.494;11.974;2022-08-19T12:04:48;26.60;93.80
9971;DHT22;5026;51.494;11.974;2022-08-19T12:07:15;26.60;93.60
9971;DHT22;5026;51.494;11.974;2022-08-19T12:09:42;26.60;93.50
9971;DHT22;5026;51.494;11.974;2022-08-19T12:12:09;26.80;93.50
9971;DHT22;5026;51.494;11.974;2022-08-19T12:14:36;26.80;93.30
9971;DHT22;5026;51.494;11.974;2022-08-19T12:17:04;26.90;93.30
9971;DHT22;5026;51.494;11.974;2022-08-19T12:19:33;27.00;93.10
9971;DHT22;5026;51.494;11.974;2022-08-19T12:22:02;26.80;93.10
9971;DHT22;5026;51.494;11.974;2022-08-19T12:24:31;26.70;93.30
9971;DHT22;5026;51.494;11.974;2022-08-19T12:26:58;26.70;93.30
9971;DHT22;5026;51.494;11.974;2022-08-19T12:29:27;26.70;93.40
9971;DHT22;5026;51.494;11.974;2022-08-19T12:31:55;26.70;93.30
9971;DHT22;5026;51.494;11.974;2022-08-19T12:34:27;26.70;93.40
9971;DHT22;5026;51.494;11.974;2022-08-19T12:36:56;26.80;93.20
9971;DHT22;5026;51.494;11.974;2022-08-19T12:39:25;26.90;93.00
9971;DHT22;5026;51.494;11.974;2022-08-19T12:41:52;27.00;92.90
9971;DHT22;5026;51.494;11.974;2022-08-19T12:44:19;27.00;93.00
9971;DHT22;5026;51.494;11.974;2022-08-19T12:46:46;27.30;93.00
9971;DHT22;5026;51.494;11.974;2022-08-19T12:49:14;28.30;92.90
9971;DHT22;5026;51.494;11.974;2022-08-19T12:51:42;27.00;92.80
9971;DHT22;5026;51.494;11.974;2022-08-19T12:54:09;26.70;93.10
9971;DHT22;5026;51.494;11.974;2022-08-19T12:56:37;26.50;93.30
9971;DHT22;5026;51.494;11.974;2022-08-19T12:59:04;26.60;93.20
9971;DHT22;5026;51.494;11.974;2022-08-19T13:01:33;26.30;93.30
9971;DHT22;5026;51.494;11.974;2022-08-19T13:04:00;25.80;93.50
9971;DHT22;5026;51.494;11.974;2022-08-19T13:06:27;25.90;93.70
9971;DHT22;5026;51.494;11.974;2022-08-19T13:08:54;26.10;93.60
9971;DHT22;5026;51.494;11.974;2022-08-19T13:11:22;26.10;93.60
9971;DHT22;5026;51.494;11.974;2022-08-19T13:13:52;26.10;93.50
9971;DHT22;5026;51.494;11.974;2022-08-19T13:16:21;26.00;93.60
9971;DHT22;5026;51.494;11.974;2022-08-19T13:18:49;25.80;93.70
9971;DHT22;5026;51.494;11.974;2022-08-19T13:21:17;25.90;93.60
9971;DHT22;5026;51.494;11.974;2022-08-19T13:23:45;25.80;93.80
9971;DHT22;5026;51.494;11.974;2022-08-19T13:26:14;25.60;93.80
9971;DHT22;5026;51.494;11.974;2022-08-19T13:28:42;25.50;94.00
9971;DHT22;5026;51.494;11.974;2022-08-19T13:31:28;25.50;94.10
9971;DHT22;5026;51.494;11.974;2022-08-19T13:34:14;25.60;94.20
9971;DHT22;5026;51.494;11.974;2022-08-19T13:36:41;25.80;94.00
9971;DHT22;5026;51.494;11.974;2022-08-19T13:39:09;25.90;93.90
9971;DHT22;5026;51.494;11.974;2022-08-19T13:41:37;26.00;93.80
9971;DHT22;5026;51.494;11.974;2022-08-19T13:44:04;26.10;93.70
9971;DHT22;5026;51.494;11.974;2022-08-19T13:46:33;26.10;93.80
9971;DHT22;5026;51.494;11.974;2022-08-19T13:49:00;26.20;93.70
9971;DHT22;5026;51.494;11.974;2022-08-19T13:51:27;26.00;93.40
9971;DHT22;5026;51.494;11.974;2022-08-19T13:53:54;26.10;93.80
9971;DHT22;5026;51.494;11.974;2022-08-19T13:56:21;26.20;93.70
9971;DHT22;5026;51.494;11.974;2022-08-19T13:58:47;26.30;93.40
9971;DHT22;5026;51.494;11.974;2022-08-19T14:01:19;26.40;93.20
9971;DHT22;5026;51.494;11.974;2022-08-19T14:03:47;26.20;93.00
9971;DHT22;5026;51.494;11.974;2022-08-19T14:06:14;26.10;93.30
9971;DHT22;5026;51.494;11.974;2022-08-19T14:08:42;26.20;93.20
9971;DHT22;5026;51.494;11.974;2022-08-19T14:11:09;26.30;93.10
9971;DHT22;5026;51.494;11.974;2022-08-19T14:13:36;26.20;93.10
9971;DHT22;5026;51.494;11.974;2022-08-19T14:16:07;25.90;93.00
9971;DHT22;5026;51.494;11.974;2022-08-19T14:18:34;25.70;93.20
9971;DHT22;5026;51.494;11.974;2022-08-19T14:21:03;25.60;93.40
9971;DHT22;5026;51.494;11.974;2022-08-19T14:23:30;25.50;93.40
9971;DHT22;5026;51.494;11.974;2022-08-19T14:26:03;25.20;93.50
9971;DHT22;5026;51.494;11.974;2022-08-19T14:28:31;25.10;93.70
9971;DHT22;5026;51.494;11.974;2022-08-19T14:30:57;24.90;93.80
9971;DHT22;5026;51.494;11.974;2022-08-19T14:33:24;24.70;93.90
9971;DHT22;5026;51.494;11.974;2022-08-19T14:35:51;24.60;94.20
9971;DHT22;5026;51.494;11.974;2022-08-19T14:38:20;24.60;94.30
9971;DHT22;5026;51.494;11.974;2022-08-19T14:40:47;24.60;94.20
9971;DHT22;5026;51.494;11.974;2022-08-19T14:43:14;24.50;94.30
9971;DHT22;5026;51.494;11.974;2022-08-19T14:45:43;24.40;94.30
9971;DHT22;5026;51.494;11.974;2022-08-19T14:48:10;24.40;94.50
9971;DHT22;5026;51.494;11.974;2022-08-19T14:50:38;24.20;94.50
9971;DHT22;5026;51.494;11.974;2022-08-19T14:53:07;23.80;94.70
9971;DHT22;5026;51.494;11.974;2022-08-19T14:55:36;23.70;94.90
9971;DHT22;5026;51.494;11.974;2022-08-19T14:58:02;23.60;95.10
9971;DHT22;5026;51.494;11.974;2022-08-19T15:00:30;23.70;95.20
9971;DHT22;5026;51.494;11.974;2022-08-19T15:02:56;23.60;95.30
9971;DHT22;5026;51.494;11.974;2022-08-19T15:05:24;23.60;95.40
9971;DHT22;5026;51.494;11.974;2022-08-19T15:07:52;23.50;95.40
9971;DHT22;5026;51.494;11.974;2022-08-19T15:10:23;23.50;95.60
9971;DHT22;5026;51.494;11.974;2022-08-19T15:12:51;23.50;95.70
9971;DHT22;5026;51.494;11.974;2022-08-19T15:15:20;23.40;95.60
9971;DHT22;5026;51.494;11.974;2022-08-19T15:17:48;23.40;95.80
9971;DHT22;5026;51.494;11.974;2022-08-19T15:20:18;23.40;95.70
9971;DHT22;5026;51.494;11.974;2022-08-19T15:22:46;23.30;95.70
9971;DHT22;5026;51.494;11.974;2022-08-19T15:25:15;23.20;95.80
9971;DHT22;5026;51.494;11.974;2022-08-19T15:27:44;23.30;96.00
9971;DHT22;5026;51.494;11.974;2022-08-19T15:30:17;23.30;96.10
9971;DHT22;5026;51.494;11.974;2022-08-19T15:32:44;23.40;96.00
9971;DHT22;5026;51.494;11.974;2022-08-19T15:35:11;23.40;96.00
9971;DHT22;5026;51.494;11.974;2022-08-19T15:37:38;23.50;95.90
9971;DHT22;5026;51.494;11.974;2022-08-19T15:40:06;23.60;95.90
9971;DHT22;5026;51.494;11.974;2022-08-19T15:42:35;23.70;95.80
9971;DHT22;5026;51.494;11.974;2022-08-19T15:45:03;23.80;95.70
9971;DHT22;5026;51.494;11.974;2022-08-19T15:47:31;23.90;95.60
9971;DHT22;5026;51.494;11.974;2022-08-19T15:49:58;23.80;95.40
9971;DHT22;5026;51.494;11.974;2022-08-19T15:52:25;23.70;95.70
9971;DHT22;5026;51.494;11.974;2022-08-19T15:54:52;23.70;95.60
9971;DHT22;5026;51.494;11.974;2022-08-19T15:57:19;23.70;95.50
9971;DHT22;5026;51.494;11.974;2022-08-19T16:00:05;23.60;95.30
9971;DHT22;5026;51.494;11.974;2022-08-19T16:02:51;23.60;95.60
9971;DHT22;5026;51.494;11.974;2022-08-19T16:05:35;23.60;95.60
9971;DHT22;5026;51.494;11.974;2022-08-19T16:08:19;23.60;95.60
9971;DHT22;5026;51.494;11.974;2022-08-19T16:10:46;23.60;95.40
9971;DHT22;5026;51.494;11.974;2022-08-19T16:13:13;23.60;95.40
9971;DHT22;5026;51.494;11.974;2022-08-19T16:15:40;23.60;95.40
9971;DHT22;5026;51.494;11.974;2022-08-19T16:18:08;23.60;95.50
9971;DHT22;5026;51.494;11.974;2022-08-19T16:20:35;23.60;95.40
9971;DHT22;5026;51.494;11.974;2022-08-19T16:23:03;23.60;95.50
9971;DHT22;5026;51.494;11.974;2022-08-19T16:25:30;23.60;95.60
9971;DHT22;5026;51.494;11.974;2022-08-19T16:27:58;23.60;95.50
9971;DHT22;5026;51.494;11.974;2022-08-19T16:30:25;23.40;95.50
9971;DHT22;5026;51.494;11.974;2022-08-19T16:32:52;23.30;95.60
9971;DHT22;5026;51.494;11.974;2022-08-19T16:35:20;23.20;95.70
9971;DHT22;5026;51.494;11.974;2022-08-19T16:37:47;23.10;95.80
9971;DHT22;5026;51.494;11.974;2022-08-19T16:40:14;23.00;95.90
9971;DHT22;5026;51.494;11.974;2022-08-19T16:42:41;22.90;96.20
9971;DHT22;5026;51.494;11.974;2022-08-19T16:45:09;22.90;96.20
9971;DHT22;5026;51.494;11.974;2022-08-19T16:47:35;22.90;96.20
9971;DHT22;5026;51.494;11.974;2022-08-19T16:50:03;22.90;96.40